Time;durP1;ratioP1;P1;durP2;ratioP2;P2;SDS_P1;SDS_P2;PMS_P1;PMS_P2;Temp;Humidity;BMP_temperature;BMP_pressure;BME280_temperature;BME280_humidity;BME280_pressure;Samples;Min_cycle;Max_cycle;Signal;HPM_P1;HPM_P2
2023/08/13 01:01:27;;;;;;;1999.90;999.90;;;;;;;;;;5102742;23;20275;-73
2023/08/13 01:04:13;;;;;;;1999.90;999.90;;;;;;;;;;4990221;28;20207;-73
2023/08/13 01:07:02;;;;;;;1999.90;999.90;;;;;;;;;;4987941;28;20260;-73
2023/08/13 01:09:52;;;;;;;1999.90;999.90;;;;;;;;;;4986205;28;20428;-73
2023/08/13 01:12:40;;;;;;;1999.90;999.90;;;;;;;;;;4975503;28;20212;-71
2023/08/13 01:15:28;;;;;;;1999.90;999.90;;;;;;;;;;4970227;28;20323;-72
2023/08/13 01:18:15;;;;;;;1999.90;999.90;;;;;;;;;;4976062;28;20250;-73
2023/08/13 01:21:00;;;;;;;1999.90;999.90;;;;;;;;;;4969329;28;20255;-73
2023/08/13 01:23:46;;;;;;;1999.90;999.90;;;;;;;;;;4983730;28;20210;-74
2023/08/13 01:26:35;;;;;;;1999.90;999.90;;;;;;;;;;4992768;28;20203;-74
2023/08/13 01:29:23;;;;;;;1999.90;999.90;;;;;;;;;;4992664;28;20203;-72
2023/08/13 01:32:11;;;;;;;1999.90;999.90;;;;;;;;;;4992030;28;20242;-74
2023/08/13 01:34:57;;;;;;;1999.90;999.90;;;;;;;;;;4992650;28;20207;-73
2023/08/13 01:37:43;;;;;;;1999.90;999.90;;;;;;;;;;4983515;28;20812;-74
2023/08/13 01:40:29;;;;;;;1999.90;999.90;;;;;;;;;;4977015;28;20227;-73
2023/08/13 01:43:14;;;;;;;1999.90;999.90;;;;;;;;;;4987696;28;20283;-74
2023/08/13 01:46:00;;;;;;;1999.90;999.90;;;;;;;;;;4992644;28;20593;-73
2023/08/13 01:48:45;;;;;;;1999.90;999.90;;;;;;;;;;4979155;28;20215;-73
2023/08/13 01:51:30;;;;;;;1999.90;999.90;;;;;;;;;;4953871;28;20320;-73
2023/08/13 01:54:15;;;;;;;1999.90;999.90;;;;;;;;;;4990989;28;20587;-74
2023/08/13 01:57:02;;;;;;;1999.90;999.90;;;;;;;;;;4985378;28;20614;-74
2023/08/13 01:59:46;;;;;;;1999.90;999.90;;;;;;;;;;4987168;28;20227;-72
2023/08/13 02:02:31;;;;;;;1999.90;999.90;;;;;;;;;;4980013;28;20215;-72
2023/08/13 02:05:16;;;;;;;1999.90;999.90;;;;;;;;;;4991226;28;20227;-73
2023/08/13 02:08:01;;;;;;;1999.90;999.90;;;;;;;;;;4975370;28;20208;-73
2023/08/13 02:10:46;;;;;;;1999.90;999.90;;;;;;;;;;4990730;28;20441;-74
2023/08/13 02:13:32;;;;;;;1999.90;999.90;;;;;;;;;;4977617;28;20284;-74
2023/08/13 02:16:17;;;;;;;1999.90;999.90;;;;;;;;;;4987492;28;20228;-74
2023/08/13 02:19:02;;;;;;;1999.90;999.90;;;;;;;;;;4988991;28;20202;-73
2023/08/13 02:21:47;;;;;;;1999.90;999.90;;;;;;;;;;4982306;28;20295;-74
2023/08/13 02:24:31;;;;;;;1999.90;999.90;;;;;;;;;;4977353;28;20286;-74
2023/08/13 02:27:16;;;;;;;1999.90;999.90;;;;;;;;;;4979600;28;20219;-74
2023/08/13 02:30:03;;;;;;;1999.90;999.90;;;;;;;;;;4991644;28;20441;-74
2023/08/13 02:32:48;;;;;;;1999.90;999.90;;;;;;;;;;4978470;28;20726;-74
2023/08/13 02:35:33;;;;;;;1999.90;999.90;;;;;;;;;;4953930;28;20216;-73
2023/08/13 02:38:18;;;;;;;1999.90;999.90;;;;;;;;;;4990744;28;20854;-73
2023/08/13 02:41:03;;;;;;;1999.90;999.90;;;;;;;;;;4984849;28;20697;-73
2023/08/13 02:43:52;;;;;;;1999.90;999.90;;;;;;;;;;4989115;28;20203;-73
2023/08/13 02:46:38;;;;;;;1999.90;999.90;;;;;;;;;;4983241;28;20251;-75
2023/08/13 02:49:23;;;;;;;1999.90;999.90;;;;;;;;;;4994809;28;20238;-74
2023/08/13 02:52:08;;;;;;;1999.90;999.90;;;;;;;;;;4978572;28;20718;-74
2023/08/13 02:54:53;;;;;;;1999.90;999.90;;;;;;;;;;4995268;28;20211;-74
2023/08/13 02:57:38;;;;;;;1999.90;999.90;;;;;;;;;;4976018;28;20195;-73
2023/08/13 03:00:23;;;;;;;1999.90;999.90;;;;;;;;;;4991295;28;20235;-74
2023/08/13 03:03:10;;;;;;;1999.90;999.90;;;;;;;;;;4991945;28;20262;-73
2023/08/13 03:05:55;;;;;;;1999.90;999.90;;;;;;;;;;4987595;28;20580;-72
2023/08/13 03:08:40;;;;;;;1999.90;999.90;;;;;;;;;;4981430;28;20429;-73
2023/08/13 03:11:25;;;;;;;1999.90;999.90;;;;;;;;;;4979597;28;20243;-72
2023/08/13 03:14:10;;;;;;;1999.90;999.90;;;;;;;;;;4992247;28;20207;-74
2023/08/13 03:16:55;;;;;;;1999.90;999.90;;;;;;;;;;4979290;28;20208;-74
2023/08/13 03:19:41;;;;;;;1999.90;999.90;;;;;;;;;;4981147;28;20231;-73
2023/08/13 03:22:26;;;;;;;1999.90;999.90;;;;;;;;;;4977231;28;20222;-73
2023/08/13 03:25:10;;;;;;;1999.90;999.90;;;;;;;;;;4991565;28;20792;-73
2023/08/13 03:27:55;;;;;;;1999.90;999.90;;;;;;;;;;4989777;28;20202;-74
2023/08/13 03:30:40;;;;;;;1999.90;999.90;;;;;;;;;;4985557;28;20578;-74
2023/08/13 03:33:25;;;;;;;1999.90;999.90;;;;;;;;;;4993235;28;20207;-74
2023/08/13 03:36:11;;;;;;;1999.90;999.90;;;;;;;;;;4980802;28;20215;-73
2023/08/13 03:38:57;;;;;;;1999.90;999.90;;;;;;;;;;4989763;28;20266;-73
2023/08/13 03:41:42;;;;;;;1999.90;999.90;;;;;;;;;;4983615;28;20334;-74
2023/08/13 03:44:26;;;;;;;1999.90;999.90;;;;;;;;;;4994208;28;20714;-74
2023/08/13 03:47:11;;;;;;;1999.90;999.90;;;;;;;;;;4982737;28;20219;-74
2023/08/13 03:49:56;;;;;;;1999.90;999.90;;;;;;;;;;4991210;28;20230;-74
2023/08/13 03:52:42;;;;;;;1999.90;999.90;;;;;;;;;;4979994;28;20203;-73
2023/08/13 03:55:27;;;;;;;1999.90;999.90;;;;;;;;;;4987791;28;20327;-73
2023/08/13 03:58:12;;;;;;;1999.90;999.90;;;;;;;;;;4994403;28;20204;-74
2023/08/13 04:00:57;;;;;;;1999.90;999.90;;;;;;;;;;4980206;28;20247;-70
2023/08/13 04:03:42;;;;;;;1999.90;999.90;;;;;;;;;;4967685;28;20588;-73
2023/08/13 04:06:27;;;;;;;1999.90;999.90;;;;;;;;;;4971035;28;20219;-72
2023/08/13 04:09:13;;;;;;;1999.90;999.90;;;;;;;;;;4971264;28;20554;-74
2023/08/13 04:11:58;;;;;;;1999.90;999.90;;;;;;;;;;4980574;28;20254;-73
2023/08/13 04:14:43;;;;;;;1999.90;999.90;;;;;;;;;;4971280;28;20211;-74
2023/08/13 04:17:27;;;;;;;1999.90;999.90;;;;;;;;;;4977774;28;20612;-74
2023/08/13 04:20:12;;;;;;;1999.90;999.90;;;;;;;;;;4974887;28;20227;-73
2023/08/13 04:22:57;;;;;;;1999.90;999.90;;;;;;;;;;4978041;28;20324;-71
2023/08/13 04:25:44;;;;;;;1999.90;999.90;;;;;;;;;;4971457;28;20258;-74
2023/08/13 04:28:29;;;;;;;1999.90;999.90;;;;;;;;;;4979742;28;20216;-73
2023/08/13 04:31:15;;;;;;;1999.90;999.90;;;;;;;;;;4992702;28;20243;-74
2023/08/13 04:34:00;;;;;;;1999.90;999.90;;;;;;;;;;4992965;28;20203;-73
2023/08/13 04:36:45;;;;;;;1999.90;999.90;;;;;;;;;;4993711;28;20250;-73
2023/08/13 04:39:30;;;;;;;1999.90;999.90;;;;;;;;;;4993584;28;20593;-73
2023/08/13 04:42:16;;;;;;;1999.90;999.90;;;;;;;;;;4993513;28;20207;-73
2023/08/13 04:45:01;;;;;;;1999.90;999.90;;;;;;;;;;4993496;28;20210;-73
2023/08/13 04:47:46;;;;;;;1999.90;999.90;;;;;;;;;;4993277;28;20206;-73
2023/08/13 04:50:31;;;;;;;1999.90;999.90;;;;;;;;;;4993197;28;20223;-74
2023/08/13 04:53:15;;;;;;;1999.90;999.90;;;;;;;;;;4993143;28;20211;-73
2023/08/13 04:56:00;;;;;;;1999.90;999.90;;;;;;;;;;4993327;28;20210;-74
2023/08/13 04:58:47;;;;;;;1999.90;999.90;;;;;;;;;;4993136;28;20215;-73
2023/08/13 05:01:31;;;;;;;1999.90;999.90;;;;;;;;;;4993245;28;20206;-73
2023/08/13 05:04:16;;;;;;;1999.90;999.90;;;;;;;;;;4988554;28;20211;-73
2023/08/13 05:07:02;;;;;;;1999.90;999.90;;;;;;;;;;4963464;28;20279;-73
2023/08/13 05:09:48;;;;;;;1999.90;999.90;;;;;;;;;;4955865;28;20782;-73
2023/08/13 05:12:32;;;;;;;1999.90;999.90;;;;;;;;;;4958697;28;20204;-72
2023/08/13 05:15:18;;;;;;;1999.90;999.90;;;;;;;;;;4965640;28;20715;-73
2023/08/13 05:18:04;;;;;;;1999.90;999.90;;;;;;;;;;4975618;28;20215;-73
2023/08/13 05:20:50;;;;;;;1999.90;999.90;;;;;;;;;;4977968;28;20228;-72
2023/08/13 05:23:35;;;;;;;1999.90;999.90;;;;;;;;;;4992551;28;20258;-73
2023/08/13 05:26:20;;;;;;;1999.90;999.90;;;;;;;;;;4992999;28;20210;-73
2023/08/13 05:29:05;;;;;;;1999.90;999.90;;;;;;;;;;4992012;28;20435;-74
2023/08/13 05:31:53;;;;;;;1999.90;999.90;;;;;;;;;;4992626;28;20226;-73
2023/08/13 05:34:38;;;;;;;1999.90;999.90;;;;;;;;;;4971521;28;20692;-73
2023/08/13 05:37:23;;;;;;;1999.90;999.90;;;;;;;;;;4968290;28;20219;-72
2023/08/13 05:40:09;;;;;;;1999.90;999.90;;;;;;;;;;4992193;28;20270;-73
2023/08/13 05:42:55;;;;;;;1999.90;999.90;;;;;;;;;;4992262;28;20708;-74
2023/08/13 05:45:41;;;;;;;1999.90;999.90;;;;;;;;;;4992535;28;20263;-74
2023/08/13 05:48:27;;;;;;;1999.90;999.90;;;;;;;;;;4992648;28;20207;-73
2023/08/13 05:51:12;;;;;;;1999.90;999.90;;;;;;;;;;4992083;28;20256;-73
2023/08/13 05:53:57;;;;;;;1999.90;999.90;;;;;;;;;;4988134;28;20207;-72
2023/08/13 05:56:42;;;;;;;1999.90;999.90;;;;;;;;;;4970606;28;20223;-72
2023/08/13 05:59:27;;;;;;;1999.90;999.90;;;;;;;;;;4968676;28;20369;-73
2023/08/13 06:02:12;;;;;;;1999.90;999.90;;;;;;;;;;4971876;28;20348;-73
2023/08/13 06:04:58;;;;;;;1999.90;999.90;;;;;;;;;;4966047;28;20212;-74
2023/08/13 06:07:43;;;;;;;1999.90;999.90;;;;;;;;;;4971951;28;20215;-73
2023/08/13 06:10:28;;;;;;;1999.90;999.90;;;;;;;;;;4966730;28;20243;-72
2023/08/13 06:13:13;;;;;;;1999.90;999.90;;;;;;;;;;4967115;28;20339;-71
2023/08/13 06:15:58;;;;;;;1999.90;999.90;;;;;;;;;;4968280;28;20695;-73
2023/08/13 06:18:43;;;;;;;1999.90;999.90;;;;;;;;;;4974558;28;20224;-73
2023/08/13 06:21:30;;;;;;;1999.90;999.90;;;;;;;;;;4975925;28;20235;-71
2023/08/13 06:24:15;;;;;;;1999.90;999.90;;;;;;;;;;4971075;28;20203;-71
2023/08/13 06:27:00;;;;;;;1999.90;999.90;;;;;;;;;;4969784;28;20821;-73
2023/08/13 06:29:46;;;;;;;1999.90;999.90;;;;;;;;;;4975195;28;20414;-73
2023/08/13 06:32:30;;;;;;;1999.90;999.90;;;;;;;;;;4970351;28;20724;-73
2023/08/13 06:35:16;;;;;;;1999.90;999.90;;;;;;;;;;4982750;28;20215;-73
2023/08/13 06:38:02;;;;;;;1999.90;999.90;;;;;;;;;;4971268;28;20255;-72
2023/08/13 06:40:48;;;;;;;1999.90;999.90;;;;;;;;;;4979146;28;20309;-72
2023/08/13 06:43:33;;;;;;;1999.90;999.90;;;;;;;;;;4963498;28;20205;-74
2023/08/13 06:46:18;;;;;;;1999.90;999.90;;;;;;;;;;4957075;28;20210;-74
2023/08/13 06:49:03;;;;;;;1999.90;999.90;;;;;;;;;;4957083;28;20356;-74
2023/08/13 06:51:48;;;;;;;1999.90;999.90;;;;;;;;;;4980336;28;20254;-74
2023/08/13 06:54:34;;;;;;;1999.90;999.90;;;;;;;;;;4984074;28;20214;-74
2023/08/13 06:57:19;;;;;;;1999.90;999.90;;;;;;;;;;4986042;28;20230;-74
2023/08/13 07:00:05;;;;;;;1999.90;999.90;;;;;;;;;;4982152;28;20238;-73
2023/08/13 07:02:50;;;;;;;1999.90;999.90;;;;;;;;;;4984655;28;20207;-74
2023/08/13 07:05:36;;;;;;;1999.90;999.90;;;;;;;;;;4977171;28;20326;-73
2023/08/13 07:08:21;;;;;;;1999.90;999.90;;;;;;;;;;4979528;28;20271;-73
2023/08/13 07:11:07;;;;;;;1999.90;999.90;;;;;;;;;;4986133;28;20705;-74
2023/08/13 07:13:52;;;;;;;1999.90;999.90;;;;;;;;;;4981459;28;20224;-74
2023/08/13 07:16:37;;;;;;;1999.90;999.90;;;;;;;;;;4985905;28;20211;-74
2023/08/13 07:19:22;;;;;;;1999.90;999.90;;;;;;;;;;4981390;28;20828;-74
2023/08/13 07:22:07;;;;;;;1999.90;999.90;;;;;;;;;;4982031;28;20215;-74
2023/08/13 07:24:52;;;;;;;1999.90;999.90;;;;;;;;;;4981328;28;20210;-72
2023/08/13 07:27:39;;;;;;;1999.90;999.90;;;;;;;;;;4981109;28;20431;-74
2023/08/13 07:30:24;;;;;;;1999.90;999.90;;;;;;;;;;4988210;28;20596;-74
2023/08/13 07:33:09;;;;;;;1999.90;999.90;;;;;;;;;;4987246;28;20231;-74
2023/08/13 07:35:54;;;;;;;1999.90;999.90;;;;;;;;;;4981962;28;20219;-74
2023/08/13 07:38:38;;;;;;;1999.90;999.90;;;;;;;;;;4986274;28;20320;-74
2023/08/13 07:41:23;;;;;;;1999.90;999.90;;;;;;;;;;4981962;28;20307;-75
2023/08/13 07:44:10;;;;;;;1999.90;999.90;;;;;;;;;;4983328;28;20596;-73
2023/08/13 07:46:58;;;;;;;1999.90;999.90;;;;;;;;;;4984560;28;20222;-74
2023/08/13 07:49:43;;;;;;;1999.90;999.90;;;;;;;;;;4982063;28;20366;-73
2023/08/13 07:52:28;;;;;;;1999.90;999.90;;;;;;;;;;4977576;28;20230;-73
2023/08/13 07:55:12;;;;;;;1999.90;999.90;;;;;;;;;;4979087;28;20227;-73
2023/08/13 07:57:57;;;;;;;1999.90;999.90;;;;;;;;;;4978868;28;20212;-74
2023/08/13 08:00:44;;;;;;;1999.90;999.90;;;;;;;;;;4979929;28;20746;-74
2023/08/13 08:03:29;;;;;;;1999.90;999.90;;;;;;;;;;4979384;28;20207;-75
2023/08/13 08:06:14;;;;;;;1999.90;999.90;;;;;;;;;;4984857;28;20421;-75
2023/08/13 08:08:59;;;;;;;1999.90;999.90;;;;;;;;;;4988730;28;20217;-75
2023/08/13 08:11:44;;;;;;;1999.90;999.90;;;;;;;;;;4984460;28;20742;-74
2023/08/13 08:14:29;;;;;;;1999.90;999.90;;;;;;;;;;4987386;28;20212;-75
2023/08/13 08:17:15;;;;;;;1999.90;999.90;;;;;;;;;;4991936;28;20215;-75
2023/08/13 08:20:00;;;;;;;1999.90;999.90;;;;;;;;;;4988284;28;20238;-75
2023/08/13 08:22:45;;;;;;;1999.90;999.90;;;;;;;;;;4987637;28;20211;-75
2023/08/13 08:25:31;;;;;;;1999.90;999.90;;;;;;;;;;4987703;28;20296;-75
2023/08/13 08:28:16;;;;;;;1999.90;999.90;;;;;;;;;;4988100;28;20409;-75
2023/08/13 08:31:01;;;;;;;1999.90;999.90;;;;;;;;;;4984911;28;20234;-75
2023/08/13 08:33:47;;;;;;;1999.90;999.90;;;;;;;;;;4989873;28;20335;-75
2023/08/13 08:36:32;;;;;;;1999.90;999.90;;;;;;;;;;4988211;28;20241;-75
2023/08/13 08:39:18;;;;;;;1999.90;999.90;;;;;;;;;;4987376;28;20215;-73
2023/08/13 08:42:03;;;;;;;1999.90;999.90;;;;;;;;;;4989206;28;20307;-75
2023/08/13 08:44:48;;;;;;;1999.90;999.90;;;;;;;;;;4988289;28;20211;-75
2023/08/13 08:47:34;;;;;;;1999.90;999.90;;;;;;;;;;4991105;28;20704;-75
2023/08/13 08:50:21;;;;;;;1999.90;999.90;;;;;;;;;;4988386;28;20966;-74
2023/08/13 08:53:06;;;;;;;1999.90;999.90;;;;;;;;;;4986304;28;20362;-76
2023/08/13 08:55:51;;;;;;;1999.90;999.90;;;;;;;;;;4983910;28;20334;-75
2023/08/13 08:58:36;;;;;;;1999.90;999.90;;;;;;;;;;4981045;28;20208;-75
2023/08/13 09:01:21;;;;;;;1999.90;999.90;;;;;;;;;;4977218;28;20255;-75
2023/08/13 09:04:06;;;;;;;1999.90;999.90;;;;;;;;;;4967030;28;20767;-73
2023/08/13 09:07:00;;;;;;;1999.90;999.90;;;;;;;;;;4980967;28;20853;-75
2023/08/13 09:09:49;;;;;;;1999.90;999.90;;;;;;;;;;4977815;28;20234;-75
2023/08/13 09:12:35;;;;;;;1999.90;999.90;;;;;;;;;;4986464;28;20226;-73
2023/08/13 09:15:19;;;;;;;1999.90;999.90;;;;;;;;;;4990972;28;20219;-74
2023/08/13 09:18:05;;;;;;;1999.90;999.90;;;;;;;;;;4986324;28;20302;-73
2023/08/13 09:20:50;;;;;;;1999.90;999.90;;;;;;;;;;4980766;28;20739;-73
2023/08/13 09:23:37;;;;;;;1999.90;999.90;;;;;;;;;;4988006;28;20208;-74
2023/08/13 09:26:25;;;;;;;1999.90;999.90;;;;;;;;;;4990447;28;21142;-74
2023/08/13 09:29:10;;;;;;;1999.90;999.90;;;;;;;;;;4990413;28;20697;-75
2023/08/13 09:31:55;;;;;;;1999.90;999.90;;;;;;;;;;4979644;28;20794;-75
2023/08/13 09:34:40;;;;;;;1999.90;999.90;;;;;;;;;;4982504;28;20207;-75
2023/08/13 09:37:26;;;;;;;1999.90;999.90;;;;;;;;;;4987883;28;20293;-76
2023/08/13 09:40:12;;;;;;;1999.90;999.90;;;;;;;;;;4989857;28;20339;-74
2023/08/13 09:42:58;;;;;;;1999.90;999.90;;;;;;;;;;4988588;28;20231;-77
2023/08/13 09:45:44;;;;;;;1999.90;999.90;;;;;;;;;;4990444;28;20347;-75
2023/08/13 09:48:30;;;;;;;1999.90;999.90;;;;;;;;;;4986785;28;20215;-74
2023/08/13 09:51:15;;;;;;;1999.90;999.90;;;;;;;;;;4987615;28;20230;-73
2023/08/13 09:54:04;;;;;;;1999.90;999.90;;;;;;;;;;4985740;28;20259;-74
2023/08/13 09:56:54;;;;;;;1999.90;999.90;;;;;;;;;;4983379;28;20249;-74
2023/08/13 09:59:39;;;;;;;1999.90;999.90;;;;;;;;;;4983750;28;20355;-75
2023/08/13 10:02:24;;;;;;;1999.90;999.90;;;;;;;;;;4989104;28;20219;-76
2023/08/13 10:05:09;;;;;;;1999.90;999.90;;;;;;;;;;4972350;28;20892;-74
2023/08/13 10:07:55;;;;;;;1999.90;999.90;;;;;;;;;;4977842;28;20226;-74
2023/08/13 10:10:41;;;;;;;1999.90;999.90;;;;;;;;;;4978777;28;20598;-74
2023/08/13 10:13:27;;;;;;;1999.90;999.90;;;;;;;;;;4981191;28;20595;-74
2023/08/13 10:16:13;;;;;;;1999.90;999.90;;;;;;;;;;4984387;28;20222;-73
2023/08/13 10:19:02;;;;;;;1999.90;999.90;;;;;;;;;;4985705;28;20280;-74
2023/08/13 10:21:54;;;;;;;1999.90;999.90;;;;;;;;;;4975596;28;20335;-74
2023/08/13 10:24:39;;;;;;;1999.90;999.90;;;;;;;;;;4981649;28;20270;-74
2023/08/13 10:27:24;;;;;;;1999.90;999.90;;;;;;;;;;4979444;28;20323;-74
2023/08/13 10:30:12;;;;;;;1999.90;999.90;;;;;;;;;;4976030;28;20235;-73
2023/08/13 10:32:59;;;;;;;1999.90;999.90;;;;;;;;;;4979702;28;20471;-73
2023/08/13 10:35:44;;;;;;;1999.90;999.90;;;;;;;;;;4977671;28;20213;-73
2023/08/13 10:38:34;;;;;;;1999.90;999.90;;;;;;;;;;4984457;28;20215;-74
2023/08/13 10:41:32;;;;;;;1999.90;999.90;;;;;;;;;;4980600;28;20238;-72
2023/08/13 10:44:26;;;;;;;1999.90;999.90;;;;;;;;;;4978635;28;20682;-73
2023/08/13 10:47:13;;;;;;;1999.90;999.90;;;;;;;;;;4980087;28;20208;-73
2023/08/13 10:49:58;;;;;;;1999.90;999.90;;;;;;;;;;4977981;28;20315;-74
2023/08/13 10:52:46;;;;;;;1999.90;999.90;;;;;;;;;;4981725;28;20600;-74
2023/08/13 10:55:33;;;;;;;1999.90;999.90;;;;;;;;;;4977770;28;20263;-74
2023/08/13 10:58:23;;;;;;;1999.90;999.90;;;;;;;;;;4977822;28;20264;-75
2023/08/13 11:01:11;;;;;;;1999.90;999.90;;;;;;;;;;4980641;28;20818;-73
2023/08/13 11:03:57;;;;;;;1999.90;999.90;;;;;;;;;;4977971;28;20207;-71
2023/08/13 11:06:42;;;;;;;1999.90;999.90;;;;;;;;;;4980992;28;20207;-73
2023/08/13 11:09:28;;;;;;;1999.90;999.90;;;;;;;;;;4976966;28;20761;-73
2023/08/13 11:12:14;;;;;;;1999.90;999.90;;;;;;;;;;4981347;28;20224;-73
2023/08/13 11:14:59;;;;;;;1999.90;999.90;;;;;;;;;;4980995;28;20275;-72
2023/08/13 11:17:47;;;;;;;1999.90;999.90;;;;;;;;;;4984134;28;20790;-73
2023/08/13 11:20:34;;;;;;;1999.90;999.90;;;;;;;;;;4979835;28;20320;-71
2023/08/13 11:23:19;;;;;;;1999.90;999.90;;;;;;;;;;4981346;28;20203;-73
2023/08/13 11:26:04;;;;;;;1999.90;999.90;;;;;;;;;;4985143;28;20211;-72
2023/08/13 11:28:50;;;;;;;1999.90;999.90;;;;;;;;;;4982722;28;20216;-72
2023/08/13 11:31:38;;;;;;;1999.90;999.90;;;;;;;;;;4977396;28;20403;-72
2023/08/13 11:34:23;;;;;;;1999.90;999.90;;;;;;;;;;4989055;28;20590;-71
2023/08/13 11:37:09;;;;;;;1999.90;999.90;;;;;;;;;;4986560;28;20231;-72
2023/08/13 11:39:54;;;;;;;1999.90;999.90;;;;;;;;;;4984624;28;20235;-72
2023/08/13 11:42:50;;;;;;;1999.90;999.90;;;;;;;;;;4975498;28;20782;-72
2023/08/13 11:45:35;;;;;;;1999.90;999.90;;;;;;;;;;4981275;28;20211;-73
2023/08/13 11:48:21;;;;;;;1999.90;999.90;;;;;;;;;;4985344;28;20794;-74
2023/08/13 11:51:13;;;;;;;1999.90;999.90;;;;;;;;;;4988860;28;20839;-73
2023/08/13 11:54:00;;;;;;;1999.90;999.90;;;;;;;;;;4982156;28;20716;-72
2023/08/13 11:56:45;;;;;;;1999.90;999.90;;;;;;;;;;4987450;28;20211;-73
2023/08/13 11:59:30;;;;;;;1999.90;999.90;;;;;;;;;;4988819;28;20747;-71
2023/08/13 12:02:16;;;;;;;1999.90;999.90;;;;;;;;;;4991807;28;20207;-71
2023/08/13 12:05:02;;;;;;;1999.90;999.90;;;;;;;;;;4979973;28;20219;-73
2023/08/13 12:07:47;;;;;;;1999.90;999.90;;;;;;;;;;4986041;28;20207;-73
2023/08/13 12:10:33;;;;;;;1999.90;999.90;;;;;;;;;;4982993;28;20239;-72
2023/08/13 12:13:18;;;;;;;1999.90;999.90;;;;;;;;;;4976479;28;20555;-72
2023/08/13 12:16:03;;;;;;;1999.90;999.90;;;;;;;;;;4974163;28;20215;-72
2023/08/13 12:18:48;;;;;;;1999.90;999.90;;;;;;;;;;4980758;28;20815;-70
2023/08/13 12:21:34;;;;;;;1999.90;999.90;;;;;;;;;;4976152;28;20257;-73
2023/08/13 12:24:19;;;;;;;1999.90;999.90;;;;;;;;;;4980574;28;20927;-72
2023/08/13 12:27:06;;;;;;;1999.90;999.90;;;;;;;;;;4976917;28;20230;-72
2023/08/13 12:29:51;;;;;;;1999.90;999.90;;;;;;;;;;4975114;28;20417;-72
2023/08/13 12:32:35;;;;;;;1999.90;999.90;;;;;;;;;;4981417;28;20223;-72
2023/08/13 12:35:21;;;;;;;1999.90;999.90;;;;;;;;;;4985741;28;20216;-71
2023/08/13 12:38:06;;;;;;;1999.90;999.90;;;;;;;;;;4981281;28;20223;-72
2023/08/13 12:40:51;;;;;;;1999.90;999.90;;;;;;;;;;4974232;28;20320;-71
2023/08/13 12:43:39;;;;;;;1999.90;999.90;;;;;;;;;;4975234;28;20287;-72
2023/08/13 12:46:24;;;;;;;1999.90;999.90;;;;;;;;;;4977085;28;20207;-73
2023/08/13 12:49:09;;;;;;;1999.90;999.90;;;;;;;;;;4986669;28;20214;-73
2023/08/13 12:51:54;;;;;;;1999.90;999.90;;;;;;;;;;4984352;28;20703;-72
2023/08/13 12:54:39;;;;;;;1999.90;999.90;;;;;;;;;;4987551;28;20242;-72
2023/08/13 12:57:24;;;;;;;1999.90;999.90;;;;;;;;;;4988653;28;20413;-70
2023/08/13 13:00:10;;;;;;;1999.90;999.90;;;;;;;;;;4987885;28;20266;-73
2023/08/13 13:02:56;;;;;;;1999.90;999.90;;;;;;;;;;4986932;28;20211;-71
2023/08/13 13:05:40;;;;;;;1999.90;999.90;;;;;;;;;;4980529;28;20219;-72
2023/08/13 13:08:25;;;;;;;1999.90;999.90;;;;;;;;;;4984756;28;20458;-72
2023/08/13 13:11:10;;;;;;;1999.90;999.90;;;;;;;;;;4985703;28;20242;-72
2023/08/13 13:13:56;;;;;;;1999.90;999.90;;;;;;;;;;4987277;28;20732;-72
2023/08/13 13:16:43;;;;;;;1999.90;999.90;;;;;;;;;;4986318;28;20586;-74
2023/08/13 13:19:28;;;;;;;1999.90;999.90;;;;;;;;;;4986075;28;20642;-71
2023/08/13 13:22:13;;;;;;;1999.90;999.90;;;;;;;;;;4981280;28;20219;-71
2023/08/13 13:24:58;;;;;;;1999.90;999.90;;;;;;;;;;4988751;28;20207;-73
2023/08/13 13:27:42;;;;;;;1999.90;999.90;;;;;;;;;;4986886;28;20211;-72
2023/08/13 13:30:32;;;;;;;1999.90;999.90;;;;;;;;;;4990984;28;21113;-70
2023/08/13 13:33:18;;;;;;;1999.90;999.90;;;;;;;;;;4978608;28;20602;-72
2023/08/13 13:36:05;;;;;;;1999.90;999.90;;;;;;;;;;4972520;28;20263;-72
2023/08/13 13:38:50;;;;;;;1999.90;999.90;;;;;;;;;;4971194;28;20211;-73
2023/08/13 13:41:35;;;;;;;1999.90;999.90;;;;;;;;;;4982766;28;20639;-72
2023/08/13 13:44:19;;;;;;;1999.90;999.90;;;;;;;;;;4992333;28;20840;-72
2023/08/13 13:47:04;;;;;;;1999.90;999.90;;;;;;;;;;4969757;28;20222;-73
2023/08/13 13:49:51;;;;;;;1999.90;999.90;;;;;;;;;;4986689;28;20308;-71
2023/08/13 13:52:36;;;;;;;1999.90;999.90;;;;;;;;;;4953493;29;20343;-70
2023/08/13 13:55:21;;;;;;;1999.90;999.90;;;;;;;;;;4953854;29;20212;-72
2023/08/13 13:58:06;;;;;;;1999.90;999.90;;;;;;;;;;4953454;29;20213;-71
2023/08/13 14:00:51;;;;;;;1999.90;999.90;;;;;;;;;;4953562;28;20736;-70
2023/08/13 14:03:36;;;;;;;1999.90;999.90;;;;;;;;;;4953777;29;20683;-72
2023/08/13 14:06:23;;;;;;;1999.90;999.90;;;;;;;;;;4953771;29;20209;-71
2023/08/13 14:09:09;;;;;;;1999.90;999.90;;;;;;;;;;4952654;28;20419;-71
2023/08/13 14:11:54;;;;;;;1999.90;999.90;;;;;;;;;;4953798;29;20322;-71
2023/08/13 14:14:39;;;;;;;1999.90;999.90;;;;;;;;;;4953172;29;20757;-72
2023/08/13 14:17:24;;;;;;;1999.90;999.90;;;;;;;;;;4953586;29;20217;-71
2023/08/13 14:20:09;;;;;;;1999.90;999.90;;;;;;;;;;4953264;28;20228;-71
2023/08/13 14:22:56;;;;;;;1999.90;999.90;;;;;;;;;;4953391;29;20212;-71
2023/08/13 14:25:40;;;;;;;1999.90;999.90;;;;;;;;;;4953462;29;20208;-71
2023/08/13 14:28:25;;;;;;;1999.90;999.90;;;;;;;;;;4953576;29;20798;-72
2023/08/13 14:31:10;;;;;;;1999.90;999.90;;;;;;;;;;4952567;28;20429;-72
2023/08/13 14:33:55;;;;;;;1999.90;999.90;;;;;;;;;;4953111;29;20225;-71
2023/08/13 14:36:40;;;;;;;1999.90;999.90;;;;;;;;;;4953496;29;20219;-73
2023/08/13 14:39:26;;;;;;;1999.90;999.90;;;;;;;;;;4955787;28;20336;-72
2023/08/13 14:42:12;;;;;;;1999.90;999.90;;;;;;;;;;4957090;29;20204;-71
2023/08/13 14:44:57;;;;;;;1999.90;999.90;;;;;;;;;;4956925;29;20203;-70
2023/08/13 14:47:42;;;;;;;1999.90;999.90;;;;;;;;;;4957022;29;20300;-71
2023/08/13 14:50:27;;;;;;;1999.90;999.90;;;;;;;;;;4956863;28;20232;-72
2023/08/13 14:53:11;;;;;;;1999.90;999.90;;;;;;;;;;4956245;29;20204;-71
2023/08/13 14:55:58;;;;;;;1999.90;999.90;;;;;;;;;;4956975;29;20601;-72
2023/08/13 14:58:43;;;;;;;1999.90;999.90;;;;;;;;;;4956875;29;20217;-71
2023/08/13 15:01:27;;;;;;;1999.90;999.90;;;;;;;;;;4956494;28;20309;-71
2023/08/13 15:04:12;;;;;;;1999.90;999.90;;;;;;;;;;4956631;29;20204;-71
2023/08/13 15:06:57;;;;;;;1999.90;999.90;;;;;;;;;;4956729;29;20279;-72
2023/08/13 15:09:42;;;;;;;1999.90;999.90;;;;;;;;;;4955614;28;20461;-70
2023/08/13 15:12:28;;;;;;;1999.90;999.90;;;;;;;;;;4956635;29;20217;-71
2023/08/13 15:15:13;;;;;;;1999.90;999.90;;;;;;;;;;4956127;29;20256;-71
2023/08/13 15:17:58;;;;;;;1999.90;999.90;;;;;;;;;;4956276;29;20774;-71
2023/08/13 15:20:43;;;;;;;1999.90;999.90;;;;;;;;;;4956048;28;20228;-71
2023/08/13 15:23:28;;;;;;;1999.90;999.90;;;;;;;;;;4956103;29;20209;-72
2023/08/13 15:26:13;;;;;;;1999.90;999.90;;;;;;;;;;4956303;29;20670;-71
2023/08/13 15:28:59;;;;;;;1999.90;999.90;;;;;;;;;;4956239;29;20237;-71
2023/08/13 15:31:45;;;;;;;1999.90;999.90;;;;;;;;;;4954873;29;20560;-73
2023/08/13 15:34:30;;;;;;;1999.90;999.90;;;;;;;;;;4955805;29;20729;-73
2023/08/13 15:37:15;;;;;;;1999.90;999.90;;;;;;;;;;4955889;29;20332;-73
2023/08/13 15:39:59;;;;;;;1999.90;999.90;;;;;;;;;;4955961;28;20745;-73
2023/08/13 15:42:44;;;;;;;1999.90;999.90;;;;;;;;;;4955709;29;20295;-71
2023/08/13 15:45:30;;;;;;;1999.90;999.90;;;;;;;;;;4956029;29;20314;-71
2023/08/13 15:48:15;;;;;;;1999.90;999.90;;;;;;;;;;4956138;29;20704;-73
2023/08/13 15:51:00;;;;;;;1999.90;999.90;;;;;;;;;;4954702;28;20592;-72
2023/08/13 15:53:45;;;;;;;1999.90;999.90;;;;;;;;;;4955928;29;20776;-72
2023/08/13 15:56:30;;;;;;;1999.90;999.90;;;;;;;;;;4956017;29;20227;-72
2023/08/13 15:59:15;;;;;;;1999.90;999.90;;;;;;;;;;4955438;28;20208;-74
2023/08/13 16:02:01;;;;;;;1999.90;999.90;;;;;;;;;;4955695;29;20260;-72
2023/08/13 16:04:46;;;;;;;1999.90;999.90;;;;;;;;;;4955620;29;20333;-72
2023/08/13 16:07:31;;;;;;;1999.90;999.90;;;;;;;;;;4955694;29;20209;-72
2023/08/13 16:10:16;;;;;;;1999.90;999.90;;;;;;;;;;4954263;28;20413;-73
2023/08/13 16:13:01;;;;;;;1999.90;999.90;;;;;;;;;;4958329;29;20273;-72
2023/08/13 16:15:46;;;;;;;1999.90;999.90;;;;;;;;;;4955697;29;20215;-73
2023/08/13 16:18:32;;;;;;;1999.90;999.90;;;;;;;;;;4955636;29;20699;-72
2023/08/13 16:21:17;;;;;;;1999.90;999.90;;;;;;;;;;4955374;28;20229;-72
2023/08/13 16:24:04;;;;;;;1999.90;999.90;;;;;;;;;;4955033;29;20208;-73